createdAt,value
2018-03-27T00:01:13.181Z,95.60
2018-03-27T00:03:39.919Z,95.60
2018-03-27T00:06:06.604Z,95.60
2018-03-27T00:08:33.235Z,95.90
2018-03-27T00:10:59.848Z,95.90
2018-03-27T00:13:27.359Z,95.90
2018-03-27T00:15:53.984Z,96.10
2018-03-27T00:18:20.627Z,95.90
2018-03-27T00:20:47.245Z,96.00
2018-03-27T00:23:14.019Z,96.10
2018-03-27T00:25:40.678Z,96.20
2018-03-27T00:28:19.547Z,96.20
2018-03-27T00:30:59.140Z,96.30
2018-03-27T00:33:38.086Z,96.20
2018-03-27T00:36:16.916Z,96.30
2018-03-27T00:38:55.845Z,96.40
2018-03-27T00:44:33.478Z,96.70
2018-03-27T00:47:00.804Z,96.90
2018-03-27T00:49:27.323Z,96.80
2018-03-27T00:51:53.917Z,96.80
2018-03-27T00:54:21.221Z,96.70
2018-03-27T00:56:47.759Z,96.70
2018-03-27T00:59:14.329Z,96.60
2018-03-27T01:01:41.646Z,96.70
2018-03-27T01:04:08.190Z,96.70
2018-03-27T01:06:35.566Z,96.70
2018-03-27T01:09:02.954Z,96.50
2018-03-27T01:11:29.535Z,96.70
2018-03-27T01:13:56.155Z,96.60
2018-03-27T01:16:22.885Z,96.60
2018-03-27T01:18:49.451Z,96.70
2018-03-27T01:21:16.005Z,96.70
2018-03-27T01:23:42.587Z,96.70
2018-03-27T01:26:09.142Z,96.80
2018-03-27T01:28:35.712Z,96.90
2018-03-27T01:31:03.010Z,97.10
2018-03-27T01:33:29.544Z,97.10
2018-03-27T01:35:56.115Z,97.10
2018-03-27T01:38:22.636Z,97.30
2018-03-27T01:40:49.179Z,97.30
2018-03-27T01:43:15.780Z,97.30
2018-03-27T01:45:43.072Z,97.30
2018-03-27T01:48:09.758Z,97.30
2018-03-27T01:50:36.299Z,97.30
2018-03-27T01:53:03.632Z,97.40
2018-03-27T01:55:30.200Z,97.40
2018-03-27T01:57:57.478Z,97.60
2018-03-27T02:00:24.052Z,97.60
2018-03-27T02:02:50.575Z,97.80
2018-03-27T02:05:17.347Z,98.00
2018-03-27T02:07:44.061Z,98.00
2018-03-27T02:10:10.607Z,98.00
2018-03-27T02:15:40.445Z,98.00
2018-03-27T02:18:13.119Z,98.50
2018-03-27T02:20:47.207Z,98.80
2018-03-27T02:23:15.699Z,98.70
2018-03-27T02:25:42.250Z,98.90
2018-03-27T02:28:08.921Z,98.90
2018-03-27T02:30:35.463Z,99.00
2018-03-27T02:33:02.034Z,99.00
2018-03-27T02:35:28.562Z,99.40
2018-03-27T02:37:55.145Z,99.00
2018-03-27T02:40:21.699Z,98.90
2018-03-27T02:42:48.296Z,98.90
2018-03-27T02:45:14.863Z,98.90
2018-03-27T02:47:41.440Z,98.90
2018-03-27T02:50:07.998Z,98.90
2018-03-27T02:52:34.655Z,98.80
2018-03-27T02:55:01.184Z,98.90
2018-03-27T02:57:27.803Z,99.00
2018-03-27T02:59:54.352Z,99.10
2018-03-27T03:02:22.968Z,99.10
2018-03-27T03:04:49.511Z,99.30
2018-03-27T03:07:16.275Z,99.40
2018-03-27T03:09:42.851Z,99.40
2018-03-27T03:12:09.425Z,99.30
2018-03-27T03:14:35.960Z,99.30
2018-03-27T03:17:02.579Z,99.50
2018-03-27T03:19:29.195Z,99.60
2018-03-27T03:21:55.764Z,99.70
2018-03-27T03:24:22.436Z,99.70
2018-03-27T03:26:48.975Z,99.80
2018-03-27T03:29:15.511Z,99.90
2018-03-27T03:31:42.040Z,99.90
2018-03-27T03:34:08.638Z,99.90
2018-03-27T03:36:35.165Z,99.90
2018-03-27T03:39:01.935Z,99.90
2018-03-27T03:41:28.482Z,99.90
2018-03-27T03:43:55.064Z,99.90
2018-03-27T03:46:22.343Z,99.90
2018-03-27T03:48:48.944Z,99.90
2018-03-27T03:51:16.344Z,99.90
2018-03-27T03:53:42.917Z,99.90
2018-03-27T03:56:10.939Z,99.90
2018-03-27T03:58:37.492Z,99.90
2018-03-27T04:01:04.376Z,99.90
2018-03-27T04:03:31.710Z,99.90
2018-03-27T04:05:58.536Z,99.90
2018-03-27T04:08:25.058Z,99.90
2018-03-27T04:10:51.643Z,99.90
2018-03-27T04:13:18.491Z,99.90
2018-03-27T04:15:49.188Z,99.90
2018-03-27T04:18:15.869Z,99.90
2018-03-27T04:20:43.202Z,99.90
2018-03-27T04:23:09.767Z,99.90
2018-03-27T04:25:36.397Z,99.90
2018-03-27T04:28:02.949Z,99.90
2018-03-27T04:30:29.492Z,99.90
2018-03-27T04:32:56.887Z,99.90
2018-03-27T04:35:23.387Z,99.90
2018-03-27T04:37:50.775Z,99.90
2018-03-27T04:40:21.185Z,99.90
2018-03-27T04:42:47.738Z,99.90
2018-03-27T04:45:14.324Z,99.90
2018-03-27T04:47:40.865Z,99.90
2018-03-27T04:50:08.228Z,99.90
2018-03-27T04:52:34.806Z,99.90
2018-03-27T04:55:01.393Z,99.90
2018-03-27T04:57:28.683Z,99.90
2018-03-27T04:59:55.206Z,99.90
2018-03-27T05:02:21.822Z,99.90
2018-03-27T05:04:49.137Z,99.90
2018-03-27T05:07:15.915Z,99.90
2018-03-27T05:09:42.440Z,99.90
2018-03-27T05:12:09.726Z,99.90
2018-03-27T05:14:36.288Z,99.90
2018-03-27T05:17:02.847Z,99.90
2018-03-27T05:19:30.173Z,99.90
2018-03-27T05:21:56.760Z,99.90
2018-03-27T05:24:24.079Z,99.90
2018-03-27T05:26:50.615Z,99.90
2018-03-27T05:29:17.200Z,99.90
2018-03-27T05:31:44.506Z,99.90
2018-03-27T05:34:11.079Z,99.90
2018-03-27T05:36:37.640Z,99.90
2018-03-27T05:39:04.935Z,99.90
2018-03-27T05:41:31.587Z,99.90
2018-03-27T05:43:58.142Z,99.90
2018-03-27T05:46:24.696Z,99.90
2018-03-27T05:48:52.054Z,99.90
2018-03-27T05:51:19.387Z,99.90
2018-03-27T05:53:45.964Z,99.90
2018-03-27T05:56:13.226Z,99.90
2018-03-27T05:58:39.774Z,99.90
2018-03-27T06:01:06.382Z,99.90
2018-03-27T06:03:33.676Z,99.90
2018-03-27T06:06:00.243Z,99.90
2018-03-27T06:08:26.855Z,99.90
2018-03-27T06:10:53.423Z,99.90
2018-03-27T06:13:19.986Z,99.90
2018-03-27T06:15:47.349Z,99.90
2018-03-27T06:18:14.035Z,99.90
2018-03-27T06:20:40.603Z,99.90
2018-03-27T06:23:07.155Z,99.90
2018-03-27T06:25:34.428Z,99.90
2018-03-27T06:28:01.791Z,99.90
2018-03-27T06:30:28.387Z,99.90
2018-03-27T06:32:54.931Z,99.90
2018-03-27T06:35:22.279Z,99.90
2018-03-27T06:37:48.829Z,99.90
2018-03-27T06:40:15.355Z,99.90
2018-03-27T06:42:41.999Z,99.90
2018-03-27T06:45:08.547Z,99.90
2018-03-27T06:47:35.850Z,99.90
2018-03-27T06:50:02.513Z,99.90
2018-03-27T06:52:29.273Z,99.90
2018-03-27T06:54:55.835Z,99.90
2018-03-27T06:57:22.416Z,99.90
2018-03-27T06:59:48.999Z,99.90
2018-03-27T07:02:16.288Z,99.90
2018-03-27T07:04:42.937Z,99.90
2018-03-27T07:07:09.487Z,99.90
2018-03-27T07:09:36.073Z,99.90
2018-03-27T07:12:02.664Z,99.90
2018-03-27T07:14:29.247Z,99.90
2018-03-27T07:16:55.832Z,99.90
2018-03-27T07:19:23.157Z,99.90
2018-03-27T07:21:49.748Z,99.90
2018-03-27T07:24:17.058Z,99.70
2018-03-27T07:26:43.723Z,99.70
2018-03-27T07:29:10.307Z,99.50
2018-03-27T07:31:37.765Z,98.60
2018-03-27T07:34:04.386Z,98.60
2018-03-27T07:36:31.026Z,98.10
2018-03-27T07:38:57.726Z,97.10
2018-03-27T07:41:24.464Z,96.00
2018-03-27T07:43:51.037Z,95.70
2018-03-27T07:46:17.623Z,95.80
2018-03-27T07:48:44.321Z,95.80
2018-03-27T07:51:10.987Z,95.70
2018-03-27T07:53:37.567Z,95.80
2018-03-27T07:56:04.238Z,96.10
2018-03-27T07:58:31.731Z,94.50
2018-03-27T08:00:58.272Z,94.50
2018-03-27T08:03:24.862Z,93.70
2018-03-27T08:05:51.395Z,93.90
2018-03-27T08:08:17.958Z,93.40
2018-03-27T08:10:44.543Z,93.90
2018-03-27T08:13:11.223Z,92.10
2018-03-27T08:15:37.771Z,90.80
2018-03-27T08:18:05.112Z,88.00
2018-03-27T08:20:31.777Z,87.90
2018-03-27T08:23:02.412Z,82.50
2018-03-27T08:25:28.988Z,80.60
2018-03-27T08:27:59.418Z,80.60
2018-03-27T08:30:33.207Z,85.50
2018-03-27T08:32:59.759Z,78.70
2018-03-27T08:35:29.475Z,75.70
2018-03-27T08:37:56.032Z,71.80
2018-03-27T08:40:22.667Z,69.10
2018-03-27T08:42:49.324Z,68.60
2018-03-27T08:45:16.751Z,64.70
2018-03-27T08:47:43.307Z,64.70
2018-03-27T08:50:10.024Z,65.30
2018-03-27T08:52:36.675Z,62.50
2018-03-27T08:55:03.304Z,58.30
2018-03-27T08:57:29.980Z,55.60
2018-03-27T08:59:57.299Z,51.50
2018-03-27T09:02:25.854Z,51.50
2018-03-27T09:04:52.428Z,53.60
2018-03-27T09:07:18.984Z,53.40
2018-03-27T09:09:45.700Z,55.10
2018-03-27T09:12:12.301Z,53.60
2018-03-27T09:14:39.243Z,48.90
2018-03-27T09:17:05.836Z,50.90
2018-03-27T09:19:33.195Z,49.90
2018-03-27T09:21:59.826Z,49.80
2018-03-27T09:24:26.487Z,46.20
2018-03-27T09:26:54.054Z,46.20
2018-03-27T09:29:21.352Z,43.70
2018-03-27T09:31:47.923Z,43.50
2018-03-27T09:34:14.581Z,41.70
2018-03-27T09:36:41.124Z,42.50
2018-03-27T09:39:08.456Z,41.70
2018-03-27T09:41:35.776Z,42.20
2018-03-27T09:44:02.414Z,42.10
2018-03-27T09:46:29.027Z,43.70
2018-03-27T09:48:55.583Z,41.70
2018-03-27T09:51:22.178Z,44.60
2018-03-27T09:53:48.760Z,45.20
2018-03-27T09:56:15.377Z,47.80
2018-03-27T09:58:42.654Z,47.90
2018-03-27T10:01:09.242Z,47.80
2018-03-27T10:03:35.837Z,50.60
2018-03-27T10:06:02.393Z,48.80
2018-03-27T10:08:29.039Z,47.00
2018-03-27T10:10:55.622Z,48.50
2018-03-27T10:13:22.195Z,47.60
2018-03-27T10:15:48.835Z,47.20
2018-03-27T10:18:15.354Z,46.10
2018-03-27T10:20:41.928Z,45.50
2018-03-27T10:23:08.498Z,43.30
2018-03-27T10:25:35.251Z,44.30
2018-03-27T10:28:01.875Z,43.50
2018-03-27T10:30:29.235Z,39.00
2018-03-27T10:32:56.598Z,41.30
2018-03-27T10:35:23.972Z,39.90
2018-03-27T10:37:54.396Z,39.90
2018-03-27T10:40:21.048Z,42.30
2018-03-27T10:42:47.634Z,41.40
2018-03-27T10:45:15.270Z,42.70
2018-03-27T10:47:41.857Z,42.70
2018-03-27T10:50:09.201Z,40.40
2018-03-27T10:52:36.653Z,41.60
2018-03-27T10:55:04.007Z,39.30
2018-03-27T10:57:31.376Z,37.70
2018-03-27T10:59:58.027Z,37.60
2018-03-27T11:02:24.654Z,42.60
2018-03-27T11:04:52.000Z,37.80
2018-03-27T11:07:19.428Z,40.40
2018-03-27T11:09:46.098Z,40.40
2018-03-27T11:12:12.804Z,36.60
2018-03-27T11:14:39.435Z,36.50
2018-03-27T11:17:06.006Z,37.40
2018-03-27T11:19:33.369Z,38.10
2018-03-27T11:21:59.947Z,38.00
2018-03-27T11:24:26.538Z,37.50
2018-03-27T11:26:54.028Z,39.60
2018-03-27T11:29:20.629Z,39.60
2018-03-27T11:31:47.181Z,40.10
2018-03-27T11:34:13.770Z,40.80
2018-03-27T11:36:40.334Z,40.30
2018-03-27T11:39:06.906Z,42.20
2018-03-27T11:41:34.231Z,39.70
2018-03-27T11:44:00.815Z,39.60
2018-03-27T11:46:27.393Z,38.20
2018-03-27T11:48:53.959Z,38.30
2018-03-27T11:51:21.300Z,39.90
2018-03-27T11:53:47.955Z,39.90
2018-03-27T11:56:14.578Z,41.90
2018-03-27T11:58:41.299Z,35.40
2018-03-27T12:01:07.905Z,34.00
2018-03-27T12:03:34.458Z,36.50
2018-03-27T12:06:01.112Z,35.00
2018-03-27T12:08:27.740Z,36.20
2018-03-27T12:10:54.330Z,38.30
2018-03-27T12:13:25.488Z,35.00
2018-03-27T12:15:52.415Z,35.00
2018-03-27T12:18:19.154Z,39.60
2018-03-27T12:20:45.847Z,34.40
2018-03-27T12:23:12.433Z,33.00
2018-03-27T12:25:45.014Z,33.90
2018-03-27T12:28:12.386Z,34.80
2018-03-27T12:30:53.285Z,34.80
2018-03-27T12:33:19.900Z,36.40
2018-03-27T12:35:57.615Z,39.50
2018-03-27T12:38:24.265Z,39.50
2018-03-27T12:40:50.787Z,37.80
2018-03-27T12:43:17.495Z,39.50
2018-03-27T12:45:44.799Z,41.60
2018-03-27T12:48:19.370Z,40.90
2018-03-27T12:50:46.026Z,42.20
2018-03-27T12:53:12.723Z,40.30
2018-03-27T12:55:39.340Z,34.50
2018-03-27T12:58:05.903Z,34.50
2018-03-27T13:00:32.673Z,34.90
2018-03-27T13:03:00.028Z,35.30
2018-03-27T13:05:27.386Z,36.00
2018-03-27T13:07:54.716Z,38.00
2018-03-27T13:10:21.372Z,37.60
2018-03-27T13:12:49.041Z,39.20
2018-03-27T13:15:15.649Z,37.20
2018-03-27T13:17:42.271Z,40.20
2018-03-27T13:20:09.052Z,39.20
2018-03-27T13:22:35.719Z,38.60
2018-03-27T13:25:02.391Z,40.00
2018-03-27T13:27:28.963Z,40.50
2018-03-27T13:29:56.329Z,39.50
2018-03-27T13:32:23.100Z,39.50
2018-03-27T13:34:49.752Z,35.70
2018-03-27T13:37:16.421Z,38.60
2018-03-27T13:39:43.030Z,39.80
2018-03-27T13:42:10.612Z,38.50
2018-03-27T13:44:37.231Z,38.30
2018-03-27T13:47:04.682Z,37.60
2018-03-27T13:49:31.493Z,37.50
2018-03-27T13:51:58.904Z,37.10
2018-03-27T13:54:25.607Z,37.00
2018-03-27T13:56:52.234Z,38.00
2018-03-27T13:59:19.566Z,37.60
2018-03-27T14:01:46.308Z,37.50
2018-03-27T14:04:13.068Z,37.00
2018-03-27T14:06:40.651Z,37.90
2018-03-27T14:09:07.440Z,37.90
2018-03-27T14:11:34.070Z,38.00
2018-03-27T14:14:01.466Z,37.60
2018-03-27T14:16:28.327Z,37.60
2018-03-27T14:18:54.923Z,34.60
2018-03-27T14:21:22.412Z,38.30
2018-03-27T14:23:49.034Z,38.30
2018-03-27T14:26:15.628Z,38.30
2018-03-27T14:28:42.220Z,39.50
2018-03-27T14:31:09.571Z,42.40
2018-03-27T14:33:36.371Z,41.70
2018-03-27T14:36:03.751Z,39.80
2018-03-27T14:38:32.458Z,39.80
2018-03-27T14:40:59.208Z,39.10
2018-03-27T14:43:26.665Z,39.90
2018-03-27T14:45:53.290Z,39.90
2018-03-27T14:48:19.869Z,40.20
2018-03-27T14:50:47.228Z,37.60
2018-03-27T14:53:13.901Z,37.50
2018-03-27T14:55:40.486Z,38.20
2018-03-27T14:58:07.821Z,40.00
2018-03-27T15:00:34.469Z,40.00
2018-03-27T15:03:01.132Z,39.10
2018-03-27T15:05:27.748Z,40.40
2018-03-27T15:07:54.306Z,40.80
2018-03-27T15:10:20.941Z,40.10
2018-03-27T15:12:48.275Z,40.90
2018-03-27T15:15:15.611Z,42.00
2018-03-27T15:17:42.180Z,42.00
2018-03-27T15:20:09.480Z,42.10
2018-03-27T15:22:36.123Z,42.00
2018-03-27T15:25:02.797Z,42.20
2018-03-27T15:27:29.379Z,42.20
2018-03-27T15:29:55.947Z,41.90
2018-03-27T15:32:22.535Z,42.10
2018-03-27T15:34:49.822Z,42.20
2018-03-27T15:37:16.513Z,42.20
2018-03-27T15:39:43.127Z,43.30
2018-03-27T15:42:09.699Z,44.10
2018-03-27T15:44:36.284Z,44.20
2018-03-27T15:47:02.889Z,45.50
2018-03-27T15:49:30.183Z,47.00
2018-03-27T15:51:56.820Z,46.90
2018-03-27T15:54:23.458Z,47.10
2018-03-27T15:56:50.055Z,46.20
2018-03-27T15:59:17.374Z,45.90
2018-03-27T16:01:43.919Z,45.80
2018-03-27T16:04:11.289Z,47.20
2018-03-27T16:06:37.928Z,47.10
2018-03-27T16:09:05.380Z,46.10
2018-03-27T16:11:31.998Z,46.00
2018-03-27T16:13:58.598Z,45.70
2018-03-27T16:16:25.262Z,46.10
2018-03-27T16:25:05.174Z,45.70
2018-03-27T16:27:32.444Z,45.70
2018-03-27T16:29:58.873Z,45.70
2018-03-27T16:32:25.344Z,46.00
2018-03-27T16:34:52.550Z,47.50
2018-03-27T16:37:19.025Z,47.40
2018-03-27T16:39:45.482Z,47.70
2018-03-27T16:42:11.949Z,48.20
2018-03-27T16:44:38.397Z,48.20
2018-03-27T16:47:04.844Z,48.80
2018-03-27T16:49:31.332Z,49.10
2018-03-27T16:51:57.767Z,49.20
2018-03-27T16:54:24.218Z,49.60
2018-03-27T16:56:50.664Z,50.00
2018-03-27T16:59:17.161Z,50.10
2018-03-27T17:01:43.766Z,50.00
2018-03-27T17:04:10.208Z,50.20
2018-03-27T17:06:37.453Z,50.60
2018-03-27T17:09:03.982Z,50.50
2018-03-27T17:11:30.446Z,50.90
2018-03-27T17:13:56.936Z,51.00
2018-03-27T17:16:23.407Z,51.10
2018-03-27T17:18:50.616Z,51.90
2018-03-27T17:21:17.116Z,51.90
2018-03-27T17:23:43.549Z,51.90
2018-03-27T17:26:10.769Z,52.60
2018-03-27T17:28:37.201Z,52.50
2018-03-27T17:31:03.687Z,52.90
2018-03-27T17:33:30.152Z,53.00
2018-03-27T17:35:57.575Z,53.00
2018-03-27T17:38:24.051Z,53.30
2018-03-27T17:40:50.508Z,54.00
2018-03-27T17:43:16.987Z,53.30
2018-03-27T17:45:43.451Z,53.60
2018-03-27T17:48:10.935Z,53.70
2018-03-27T17:50:38.270Z,54.40
2018-03-27T17:53:04.739Z,54.40
2018-03-27T17:55:31.221Z,54.50
2018-03-27T17:58:05.741Z,54.60
2018-03-27T18:00:32.260Z,54.50
2018-03-27T18:02:58.684Z,55.50
2018-03-27T18:05:25.861Z,54.90
2018-03-27T18:07:52.328Z,54.90
2018-03-27T18:10:18.790Z,54.60
2018-03-27T18:12:46.002Z,54.90
2018-03-27T18:15:12.449Z,54.90
2018-03-27T18:17:38.880Z,54.70
2018-03-27T18:20:05.376Z,54.20
2018-03-27T18:22:31.852Z,54.40
2018-03-27T18:24:58.295Z,54.30
2018-03-27T18:27:25.502Z,53.70
2018-03-27T18:29:51.971Z,53.70
2018-03-27T18:32:18.409Z,53.90
2018-03-27T18:34:44.882Z,54.10
2018-03-27T18:37:12.092Z,53.70
2018-03-27T18:39:38.529Z,53.70
2018-03-27T18:42:04.989Z,54.10
2018-03-27T18:44:31.471Z,54.30
2018-03-27T18:46:57.900Z,54.30
2018-03-27T18:49:24.394Z,54.80
2018-03-27T18:51:50.901Z,54.90
2018-03-27T18:54:17.309Z,54.90
2018-03-27T18:56:44.795Z,55.10
2018-03-27T18:59:12.237Z,54.80
2018-03-27T19:01:38.673Z,54.80
2018-03-27T19:04:05.145Z,55.20
2018-03-27T19:06:31.604Z,55.20
2018-03-27T19:08:58.779Z,55.70
2018-03-27T19:11:25.253Z,55.70
2018-03-27T19:13:51.709Z,55.60
2018-03-27T19:16:18.977Z,55.90
2018-03-27T19:18:45.476Z,55.90
2018-03-27T19:21:11.924Z,56.00
2018-03-27T19:23:38.379Z,56.70
2018-03-27T19:26:05.581Z,56.10
2018-03-27T19:28:31.994Z,56.60
2018-03-27T19:30:58.692Z,56.20
2018-03-27T19:33:25.108Z,56.50
2018-03-27T19:35:51.576Z,56.30
2018-03-27T19:38:18.025Z,56.60
2018-03-27T19:40:44.521Z,56.70
2018-03-27T19:43:11.696Z,57.00
2018-03-27T19:45:38.848Z,56.90
2018-03-27T19:48:06.030Z,57.10
2018-03-27T19:50:32.487Z,57.10
2018-03-27T19:52:58.908Z,57.30
2018-03-27T19:55:25.341Z,57.60
2018-03-27T19:57:51.789Z,57.90
2018-03-27T20:00:18.237Z,58.00
2018-03-27T20:02:45.679Z,58.20
2018-03-27T20:05:12.121Z,57.90
2018-03-27T20:07:38.556Z,57.80
2018-03-27T20:10:05.019Z,58.10
2018-03-27T20:12:31.436Z,58.30
2018-03-27T20:14:57.918Z,58.40
2018-03-27T20:17:24.357Z,58.70
2018-03-27T20:19:50.793Z,59.00
2018-03-27T20:22:17.261Z,59.10
2018-03-27T20:24:43.705Z,59.10
2018-03-27T20:27:10.156Z,59.30
2018-03-27T20:29:36.597Z,59.60
2018-03-27T20:32:03.800Z,60.20
2018-03-27T20:34:30.290Z,60.10
2018-03-27T20:36:56.725Z,60.70
2018-03-27T20:39:23.912Z,61.50
2018-03-27T20:41:50.342Z,61.60
2018-03-27T20:44:16.785Z,62.50
2018-03-27T20:46:43.280Z,62.70
2018-03-27T20:49:10.455Z,63.80
2018-03-27T20:51:36.903Z,63.80
2018-03-27T20:54:03.373Z,64.00
2018-03-27T20:56:29.756Z,64.30
2018-03-27T20:58:56.220Z,64.70
2018-03-27T21:01:22.597Z,64.60
2018-03-27T21:03:49.020Z,65.20
2018-03-27T21:06:15.447Z,65.60
2018-03-27T21:08:41.898Z,65.80
2018-03-27T21:11:08.368Z,66.60
2018-03-27T21:13:34.807Z,67.60
2018-03-27T21:16:01.270Z,67.10
2018-03-27T21:18:27.797Z,68.00
2018-03-27T21:20:54.244Z,68.40
2018-03-27T21:23:20.722Z,68.30
2018-03-27T21:25:47.209Z,69.20
2018-03-27T21:28:13.753Z,69.60
2018-03-27T21:30:40.221Z,70.40
2018-03-27T21:33:07.387Z,72.10
2018-03-27T21:35:33.832Z,72.00
2018-03-27T21:38:00.322Z,72.70
2018-03-27T21:40:26.769Z,73.20
2018-03-27T21:42:53.246Z,74.00
2018-03-27T21:45:19.689Z,74.70
2018-03-27T21:47:46.133Z,76.10
2018-03-27T21:50:12.561Z,76.50
2018-03-27T21:52:39.007Z,77.30
2018-03-27T21:55:05.456Z,77.50
2018-03-27T21:57:31.901Z,78.00
2018-03-27T21:59:58.305Z,78.80
2018-03-27T22:02:24.732Z,78.90
2018-03-27T22:04:51.189Z,79.40
2018-03-27T22:07:17.627Z,79.60
2018-03-27T22:09:44.030Z,80.10
2018-03-27T22:12:10.477Z,80.40
2018-03-27T22:14:36.992Z,81.00
2018-03-27T22:17:03.418Z,81.40
2018-03-27T22:19:29.832Z,81.60
2018-03-27T22:21:56.228Z,81.50
2018-03-27T22:24:22.648Z,82.00
2018-03-27T22:26:49.108Z,82.30
2018-03-27T22:29:17.280Z,83.00
2018-03-27T22:31:43.721Z,83.00
2018-03-27T22:34:10.160Z,84.10
2018-03-27T22:36:36.602Z,85.50
2018-03-27T22:39:03.792Z,87.50
2018-03-27T22:41:30.283Z,87.50
2018-03-27T22:43:56.728Z,88.40
2018-03-27T22:46:23.885Z,89.30
2018-03-27T22:48:51.081Z,89.90
2018-03-27T22:51:17.520Z,89.90
2018-03-27T22:53:43.937Z,90.10
2018-03-27T22:56:10.397Z,90.30
2018-03-27T22:58:36.860Z,90.40
2018-03-27T23:01:03.300Z,90.70
2018-03-27T23:03:29.754Z,91.00
2018-03-27T23:05:56.901Z,91.40
2018-03-27T23:08:24.073Z,91.70
2018-03-27T23:10:50.555Z,91.60
2018-03-27T23:13:16.968Z,91.90
2018-03-27T23:15:43.413Z,92.20
2018-03-27T23:18:09.852Z,92.70
2018-03-27T23:20:36.252Z,92.90
2018-03-27T23:23:02.668Z,93.00
2018-03-27T23:25:29.149Z,93.20
2018-03-27T23:27:55.565Z,93.50
2018-03-27T23:30:21.956Z,93.50
2018-03-27T23:32:48.563Z,93.80
2018-03-27T23:35:15.009Z,94.00
2018-03-27T23:37:41.428Z,94.10
2018-03-27T23:40:07.846Z,94.10
2018-03-27T23:42:34.259Z,94.30
2018-03-27T23:45:00.689Z,94.30
2018-03-27T23:47:27.155Z,94.30
2018-03-27T23:49:53.592Z,94.40
2018-03-27T23:52:20.022Z,94.40
2018-03-27T23:54:46.464Z,94.50
2018-03-27T23:57:12.856Z,94.50
2018-03-27T23:59:39.300Z,94.50
